BCT weather

Boca Raton Airport
Boca Raton, Florida, United States

Public forecast

Using degrees Fahrenheit for public forecast. Weather courtesy of forecast.io.

Current aviation weather report (METAR) for Boca Raton Airport

Retrieved 2019/12/06 01:50 UTC (1 hour ago):

KBCT 060150Z 35006KT 10SM CLR 16/07 A3015

Closest aviation forecast (TAF) to Boca Raton Airport

Closest forecast is Fort Lauderdale Executive Airport, 11.4 nm (21.1 km) SSW. Retrieved 2019-12-06 00:54 UTC (2 hours ago):

TAF KFXE 052352Z 0600/0624 VRB02KT P6SM SCT250 FM061600 12008KT P6SM SCT250